Terminal Aerodrome Forecast
Issued by NWS Huntsville, AL

Home | Current Version | Previous Version | Text Only | Print | Product List | Glossary On
Versions: 1 2 3 4 5 6 7 8 9 10 11 12 13 14 15 16 17 18 19 20 21 22 23 24 25 26
000
FTUS44 KHUN 220535
TAFMSL
TAF
KMSL 220535Z 2206/2306 16011KT P6SM FEW090 OVC250
     FM221200 17015G25KT P6SM BKN025 BKN100
     FM221400 18020G30KT P6SM VCSH BKN025 BKN045
      TEMPO 2215/2218 2SM +TSRA BKN015CB
     FM221800 20013G20KT 6SM -SHRA SCT035 BKN250
     FM222100 22017G25KT P6SM SCT035 BKN050
     FM230000 23011KT P6SM SKC=

USA.gov is the U.S. government's official web portal to all federal, state and local government web resources and services.